Time;durP1;ratioP1;P1;durP2;ratioP2;P2;SDS_P1;SDS_P2;PMS_P1;PMS_P2;Temp;Humidity;BMP_temperature;BMP_pressure;BME280_temperature;BME280_humidity;BME280_pressure;Samples;Min_cycle;Max_cycle;Signal;HPM_P1;HPM_P2
2023/04/21 00:01:38;;;;;;;18.33;13.55;;;;;;;5.80;100.00;92749.06;5088481;28;20484;-73
2023/04/21 00:04:05;;;;;;;16.55;13.30;;;;;;;5.84;100.00;92752.78;5088027;28;20564;-72
2023/04/21 00:06:33;;;;;;;15.45;12.35;;;;;;;5.81;100.00;92757.50;5084436;28;20090;-72
2023/04/21 00:08:59;;;;;;;15.70;13.35;;;;;;;5.73;100.00;92759.25;5067775;28;20048;-73
2023/04/21 00:11:26;;;;;;;19.17;13.88;;;;;;;5.67;100.00;92751.56;5067816;28;20044;-73
2023/04/21 00:13:55;;;;;;;19.05;13.98;;;;;;;5.66;100.00;92755.88;5068136;28;20041;-73
2023/04/21 00:16:21;;;;;;;20.40;14.55;;;;;;;5.57;100.00;92749.38;5068057;28;20052;-73
2023/04/21 00:18:48;;;;;;;18.90;14.40;;;;;;;5.61;100.00;92753.91;5067473;28;20056;-73
2023/04/21 00:21:15;;;;;;;19.23;13.75;;;;;;;5.60;100.00;92746.47;5081144;28;20936;-73
2023/04/21 00:23:41;;;;;;;20.35;14.60;;;;;;;5.60;100.00;92754.09;5054754;28;20052;-72
2023/04/21 00:26:08;;;;;;;17.98;13.70;;;;;;;5.59;100.00;92749.97;5067770;28;20103;-72
2023/04/21 00:28:35;;;;;;;19.10;14.80;;;;;;;5.52;100.00;92744.06;5067906;28;20048;-71
2023/04/21 00:31:03;;;;;;;22.73;14.85;;;;;;;5.48;100.00;92752.06;5067704;28;20048;-71
2023/04/21 00:33:30;;;;;;;18.40;14.90;;;;;;;5.48;100.00;92753.84;5070261;28;20080;-71
2023/04/21 00:35:58;;;;;;;17.58;14.63;;;;;;;5.42;100.00;92757.16;5084742;28;20039;-71
2023/04/21 00:38:24;;;;;;;20.45;15.60;;;;;;;5.41;100.00;92753.03;5087151;28;20508;-71
2023/04/21 00:40:51;;;;;;;58.97;37.50;;;;;;;5.30;100.00;92744.16;5087805;28;20062;-71
2023/04/21 00:43:18;;;;;;;24.13;18.90;;;;;;;5.29;100.00;92743.38;5087260;28;20100;-71
2023/04/21 00:45:45;;;;;;;25.88;20.30;;;;;;;5.29;100.00;92740.03;5087726;28;20052;-71
2023/04/21 00:48:13;;;;;;;24.70;18.88;;;;;;;5.22;100.00;92753.53;5087564;28;20047;-71
2023/04/21 00:50:40;;;;;;;24.30;20.02;;;;;;;5.19;100.00;92745.50;5087609;28;20048;-71
2023/04/21 00:53:07;;;;;;;26.17;19.55;;;;;;;5.08;100.00;92742.50;5087244;28;20044;-72
2023/04/21 00:55:34;;;;;;;23.55;18.65;;;;;;;5.12;100.00;92742.91;5087313;28;20664;-72
2023/04/21 00:58:03;;;;;;;23.65;18.65;;;;;;;5.12;100.00;92744.66;5087462;28;20040;-72
2023/04/21 01:00:30;;;;;;;24.95;18.50;;;;;;;5.04;100.00;92743.81;5087544;28;20048;-72
2023/04/21 01:02:57;;;;;;;26.60;17.60;;;;;;;5.07;100.00;92740.91;5087111;28;20044;-72
2023/04/21 01:05:25;;;;;;;29.35;19.77;;;;;;;5.04;100.00;92745.56;5087647;28;20048;-72
2023/04/21 01:07:52;;;;;;;26.55;19.98;;;;;;;5.04;100.00;92748.13;5087081;28;20502;-72
2023/04/21 01:10:19;;;;;;;22.95;18.23;;;;;;;4.99;100.00;92747.91;5087944;28;20105;-72
2023/04/21 01:12:47;;;;;;;20.67;15.65;;;;;;;4.94;100.00;92743.38;5087283;28;20048;-72
2023/04/21 01:15:16;;;;;;;19.73;13.70;;;;;;;4.89;100.00;92749.03;5087711;28;20510;-73
2023/04/21 01:17:59;;;;;;;21.08;15.48;;;;;;;4.74;100.00;92715.25;5086299;28;20048;-74
2023/04/21 01:20:28;;;;;;;20.70;16.08;;;;;;;4.12;100.00;92632.66;5084891;28;20102;-74
2023/04/21 01:22:56;;;;;;;19.25;14.57;;;;;;;4.85;100.00;92741.97;5087575;28;20755;-74
2023/04/21 01:25:26;;;;;;;20.15;15.15;;;;;;;4.78;100.00;92736.81;5087525;28;20128;-75
2023/04/21 01:27:53;;;;;;;20.85;15.18;;;;;;;4.79;100.00;92730.75;5087092;28;20048;-75
2023/04/21 01:30:20;;;;;;;18.88;15.18;;;;;;;4.76;100.00;92734.44;5087113;28;20377;-74
2023/04/21 01:32:47;;;;;;;18.98;15.07;;;;;;;4.81;100.00;92734.69;5087207;28;20052;-74
2023/04/21 01:35:13;;;;;;;20.33;16.02;;;;;;;4.81;100.00;92729.59;5087033;28;20044;-75
2023/04/21 01:37:40;;;;;;;21.27;16.48;;;;;;;4.74;100.00;92716.06;5086259;28;20094;-74
2023/04/21 01:40:09;;;;;;;21.88;16.05;;;;;;;4.76;100.00;92720.94;5086878;28;20446;-74
2023/04/21 01:42:39;;;;;;;19.42;15.98;;;;;;;4.78;100.00;92727.41;5086956;28;20051;-74
2023/04/21 01:45:07;;;;;;;22.13;15.95;;;;;;;4.77;100.00;92732.72;5086880;28;20578;-72
2023/04/21 01:47:34;;;;;;;24.67;17.95;;;;;;;4.63;100.00;92727.50;5087264;28;20389;-72
2023/04/21 01:50:01;;;;;;;23.38;17.63;;;;;;;4.57;100.00;92730.03;5087171;28;20091;-72
2023/04/21 01:52:27;;;;;;;25.75;17.63;;;;;;;4.50;100.00;92723.09;5070460;28;20550;-72
2023/04/21 01:54:55;;;;;;;25.35;19.65;;;;;;;4.55;100.00;92735.28;5087617;28;20503;-72
2023/04/21 01:57:23;;;;;;;26.05;19.60;;;;;;;4.58;100.00;92729.81;5089945;28;20048;-72
2023/04/21 01:59:50;;;;;;;23.15;17.85;;;;;;;4.53;100.00;92722.75;5090594;28;20487;-72
2023/04/21 02:02:16;;;;;;;23.77;18.02;;;;;;;4.40;100.00;92709.94;5071783;28;20049;-72
2023/04/21 02:04:43;;;;;;;23.65;17.63;;;;;;;4.47;100.00;92728.56;5076220;28;20044;-71
2023/04/21 02:07:10;;;;;;;31.17;20.88;;;;;;;4.39;100.00;92718.50;5076041;28;20048;-72
2023/04/21 02:09:36;;;;;;;30.50;18.10;;;;;;;4.51;100.00;92729.00;5078876;28;20397;-72
2023/04/21 02:12:03;;;;;;;25.20;18.48;;;;;;;4.36;100.00;92731.63;5089528;28;20097;-72
2023/04/21 02:14:31;;;;;;;22.95;17.60;;;;;;;4.08;100.00;92702.63;5090787;28;20093;-72
2023/04/21 02:16:58;;;;;;;23.15;18.52;;;;;;;4.21;100.00;92724.84;5090438;28;20051;-71
2023/04/21 02:19:25;;;;;;;25.52;18.40;;;;;;;4.08;100.00;92728.03;5090048;28;20055;-72
2023/04/21 02:21:51;;;;;;;22.92;17.83;;;;;;;4.09;100.00;92722.00;5086803;28;20067;-71
2023/04/21 02:24:18;;;;;;;27.13;18.00;;;;;;;4.16;100.00;92722.03;5090317;28;20044;-72
2023/04/21 02:26:45;;;;;;;26.15;18.45;;;;;;;4.24;100.00;92723.69;5089807;28;20044;-72
2023/04/21 02:29:12;;;;;;;21.40;16.75;;;;;;;4.26;100.00;92724.31;5090322;28;20043;-72
2023/04/21 02:31:40;;;;;;;24.30;17.35;;;;;;;4.27;100.00;92726.63;5089835;28;20044;-72
2023/04/21 02:34:07;;;;;;;21.95;15.82;;;;;;;4.31;100.00;92718.66;5089749;28;20044;-72
2023/04/21 02:36:34;;;;;;;21.77;15.85;;;;;;;4.32;100.00;92713.41;5089873;28;20043;-72
2023/04/21 02:39:01;;;;;;;24.30;16.88;;;;;;;4.36;100.00;92721.44;5089983;28;20420;-72
2023/04/21 02:41:28;;;;;;;17.05;14.57;;;;;;;4.35;100.00;92719.88;5089794;28;20423;-72
2023/04/21 02:43:54;;;;;;;19.55;15.27;;;;;;;4.26;100.00;92717.44;5090457;28;20048;-72
2023/04/21 02:46:21;;;;;;;19.27;14.30;;;;;;;4.16;100.00;92716.19;5089914;28;20420;-72
2023/04/21 02:48:49;;;;;;;20.33;15.35;;;;;;;4.21;100.00;92727.38;5089942;28;20094;-73
2023/04/21 02:51:16;;;;;;;19.05;14.88;;;;;;;4.21;100.00;92727.38;5089561;28;20048;-72
2023/04/21 02:53:43;;;;;;;17.88;15.07;;;;;;;4.22;100.00;92735.78;5089485;28;20098;-72
2023/04/21 02:56:10;;;;;;;20.08;14.63;;;;;;;4.20;100.00;92722.47;5063658;28;20097;-72
2023/04/21 02:58:37;;;;;;;18.83;15.02;;;;;;;4.18;100.00;92726.94;5089522;28;20098;-72
2023/04/21 03:01:04;;;;;;;18.27;14.20;;;;;;;4.23;100.00;92737.38;5089653;28;20088;-72
2023/04/21 03:03:32;;;;;;;22.13;15.85;;;;;;;4.04;100.00;92738.75;5089238;28;20048;-72
2023/04/21 03:06:01;;;;;;;18.60;15.35;;;;;;;4.01;100.00;92739.91;5089413;28;20492;-72
2023/04/21 03:08:28;;;;;;;19.98;16.25;;;;;;;4.03;100.00;92734.66;5089200;28;20131;-72
2023/04/21 03:10:55;;;;;;;20.98;15.85;;;;;;;3.97;100.00;92744.56;5089600;28;20048;-72
2023/04/21 03:13:22;;;;;;;23.70;18.42;;;;;;;3.77;100.00;92736.75;5089335;28;20044;-72
2023/04/21 03:15:49;;;;;;;24.50;19.48;;;;;;;3.80;100.00;92738.91;5089408;28;20123;-72
2023/04/21 03:18:16;;;;;;;23.60;18.50;;;;;;;3.82;100.00;92726.81;5089176;28;20056;-72
2023/04/21 03:20:42;;;;;;;25.27;19.88;;;;;;;3.94;100.00;92736.50;5088850;28;20453;-72
2023/04/21 03:23:10;;;;;;;25.33;18.00;;;;;;;3.96;100.00;92734.56;5089074;28;20450;-71
2023/04/21 03:25:38;;;;;;;23.67;17.30;;;;;;;3.89;100.00;92729.41;5089292;28;20571;-71
2023/04/21 03:28:05;;;;;;;23.10;17.10;;;;;;;3.95;100.00;92735.53;5088761;28;20133;-72
2023/04/21 03:30:32;;;;;;;21.60;16.15;;;;;;;3.84;100.00;92722.34;5089604;28;20407;-73
2023/04/21 03:32:58;;;;;;;18.88;14.75;;;;;;;3.85;100.00;92734.06;5088471;28;20044;-73
2023/04/21 03:35:25;;;;;;;17.25;14.32;;;;;;;3.80;100.00;92733.81;5088846;28;20508;-73
2023/04/21 03:37:52;;;;;;;17.88;13.32;;;;;;;3.74;100.00;92735.34;5088652;28;20397;-72
2023/04/21 03:40:20;;;;;;;16.45;13.43;;;;;;;3.72;100.00;92741.56;5088910;28;20109;-72
2023/04/21 03:42:47;;;;;;;16.88;12.48;;;;;;;3.70;100.00;92736.66;5088556;28;20040;-72
2023/04/21 03:45:14;;;;;;;17.48;13.75;;;;;;;3.56;100.00;92737.50;5089323;28;20104;-72
2023/04/21 03:47:40;;;;;;;17.23;13.38;;;;;;;3.66;100.00;92749.91;5088039;28;20040;-72
2023/04/21 03:50:08;;;;;;;18.73;13.55;;;;;;;3.76;100.00;92747.06;5088691;28;20089;-72
2023/04/21 03:52:35;;;;;;;17.73;14.32;;;;;;;3.81;100.00;92748.13;5088724;28;20044;-72
2023/04/21 03:55:03;;;;;;;20.08;15.05;;;;;;;3.77;100.00;92741.81;5088124;28;20507;-72
2023/04/21 03:57:32;;;;;;;18.00;14.98;;;;;;;3.63;100.00;92743.44;5088801;28;20446;-72
2023/04/21 03:59:58;;;;;;;20.77;16.38;;;;;;;3.81;100.00;92754.94;5088376;28;20097;-72
2023/04/21 04:02:25;;;;;;;20.15;15.20;;;;;;;3.87;100.00;92749.94;5087780;28;20055;-72
2023/04/21 04:04:52;;;;;;;20.23;16.55;;;;;;;3.88;100.00;92753.25;5088748;28;20434;-72
2023/04/21 04:07:18;;;;;;;26.10;19.23;;;;;;;3.85;100.00;92753.63;5088344;28;20101;-72
2023/04/21 04:09:45;;;;;;;24.88;19.52;;;;;;;3.89;100.00;92754.81;5088218;28;20097;-72
2023/04/21 04:12:12;;;;;;;27.58;19.17;;;;;;;3.97;100.00;92759.81;5088113;28;20109;-71
2023/04/21 04:14:40;;;;;;;24.90;18.90;;;;;;;4.06;100.00;92757.94;5088257;28;20089;-71
2023/04/21 04:17:06;;;;;;;23.90;18.88;;;;;;;4.04;100.00;92759.88;5087352;28;20094;-71
2023/04/21 04:19:33;;;;;;;24.70;18.13;;;;;;;4.10;100.00;92766.78;5087578;28;20077;-73
2023/04/21 04:22:00;;;;;;;22.70;17.38;;;;;;;4.16;100.00;92765.25;5087741;28;20052;-71
2023/04/21 04:24:27;;;;;;;24.27;18.77;;;;;;;4.27;100.00;92769.09;5087471;28;20048;-71
2023/04/21 04:26:56;;;;;;;24.05;18.77;;;;;;;4.36;100.00;92773.06;5087909;28;20036;-72
2023/04/21 04:29:23;;;;;;;25.70;19.92;;;;;;;4.45;100.00;92772.97;5087529;28;20048;-72
2023/04/21 04:31:51;;;;;;;27.92;21.67;;;;;;;4.55;100.00;92773.44;5061466;28;20113;-71
2023/04/21 04:34:18;;;;;;;30.13;21.85;;;;;;;4.61;100.00;92777.78;5087836;28;20044;-72
2023/04/21 04:36:46;;;;;;;25.75;20.75;;;;;;;4.55;100.00;92774.22;5087809;28;20085;-72
2023/04/21 04:39:13;;;;;;;28.55;22.15;;;;;;;4.75;100.00;92773.59;5088219;28;20051;-74
2023/04/21 04:41:40;;;;;;;24.95;20.73;;;;;;;4.88;100.00;92780.53;5087607;28;20105;-76
2023/04/21 04:44:07;;;;;;;25.45;19.65;;;;;;;4.94;100.00;92787.44;5086959;28;20101;-74
2023/04/21 04:46:34;;;;;;;23.05;17.90;;;;;;;4.94;100.00;92777.25;5087735;28;20472;-74
2023/04/21 04:49:03;;;;;;;21.33;16.70;;;;;;;5.10;100.00;92785.59;5084520;28;20059;-75
2023/04/21 04:51:31;;;;;;;22.92;15.90;;;;;;;5.20;100.00;92791.09;5087514;28;20490;-74
2023/04/21 04:53:58;;;;;;;20.00;14.77;;;;;;;5.28;100.00;92792.72;5087378;28;21005;-72
2023/04/21 04:56:24;;;;;;;21.08;15.68;;;;;;;5.29;100.00;92781.59;5087620;28;20442;-72
2023/04/21 04:58:51;;;;;;;21.30;15.57;;;;;;;5.40;100.00;92782.81;5087047;28;20044;-72
2023/04/21 05:01:18;;;;;;;19.85;16.02;;;;;;;5.47;100.00;92790.50;5087207;28;20575;-72
2023/04/21 05:03:46;;;;;;;21.52;15.52;;;;;;;5.55;100.00;92787.78;5087322;28;20040;-72
2023/04/21 05:06:14;;;;;;;20.00;15.10;;;;;;;5.66;100.00;92783.13;5086974;28;20626;-72
2023/04/21 05:08:41;;;;;;;22.65;14.95;;;;;;;5.79;100.00;92785.72;5087812;28;20357;-72
2023/04/21 05:11:08;;;;;;;26.60;18.58;;;;;;;5.73;100.00;92766.09;5087015;28;20047;-73
2023/04/21 05:13:35;;;;;;;30.58;19.58;;;;;;;5.83;100.00;92779.25;5087008;28;20541;-73
2023/04/21 05:16:02;;;;;;;31.45;22.88;;;;;;;5.95;100.00;92783.81;5087051;28;20636;-73
2023/04/21 05:18:29;;;;;;;26.88;20.58;;;;;;;6.02;100.00;92789.72;5087586;28;20059;-73
2023/04/21 05:20:56;;;;;;;29.58;21.90;;;;;;;6.11;100.00;92775.84;5087437;28;20117;-72
2023/04/21 05:23:24;;;;;;;29.63;21.77;;;;;;;6.08;100.00;92762.69;5087216;28;20454;-72
2023/04/21 05:25:51;;;;;;;28.92;20.25;;;;;;;6.34;100.00;92786.69;5087323;28;20101;-72
2023/04/21 05:28:17;;;;;;;26.48;19.48;;;;;;;6.44;100.00;92781.22;5086295;28;20097;-72
2023/04/21 05:30:44;;;;;;;24.27;18.65;;;;;;;6.54;100.00;92784.94;5089131;28;20048;-72
2023/04/21 05:33:11;;;;;;;24.85;19.50;;;;;;;6.65;100.00;92785.34;5090830;28;20563;-72
2023/04/21 05:35:37;;;;;;;26.23;19.65;;;;;;;6.72;100.00;92782.81;5091823;28;20048;-72
2023/04/21 05:38:04;;;;;;;27.88;19.98;;;;;;;6.86;100.00;92783.59;5091091;28;20089;-72
2023/04/21 05:40:32;;;;;;;29.00;21.50;;;;;;;6.93;100.00;92787.72;5091149;28;20089;-73
2023/04/21 05:42:59;;;;;;;31.67;22.40;;;;;;;7.00;100.00;92782.59;5090427;28;20082;-72
2023/04/21 05:45:26;;;;;;;31.40;20.30;;;;;;;7.15;100.00;92789.25;5091440;28;20468;-72
2023/04/21 05:47:52;;;;;;;31.42;21.27;;;;;;;7.26;100.00;92791.19;5091134;28;20093;-72
2023/04/21 05:50:19;;;;;;;32.58;22.05;;;;;;;7.28;100.00;92791.81;5091376;28;20055;-72
2023/04/21 05:52:46;;;;;;;42.45;25.88;;;;;;;7.34;100.00;92790.22;5090969;28;20090;-72
2023/04/21 05:55:13;;;;;;;33.05;22.30;;;;;;;7.47;100.00;92787.63;5090552;28;20078;-72
2023/04/21 05:57:41;;;;;;;30.70;21.92;;;;;;;7.52;100.00;92781.91;5090934;28;20090;-72
2023/04/21 06:00:09;;;;;;;37.05;26.35;;;;;;;7.68;100.00;92785.78;5091157;28;20044;-72
2023/04/21 06:02:36;;;;;;;45.47;31.33;;;;;;;7.77;100.00;92783.03;5090967;28;20099;-73
2023/04/21 06:05:02;;;;;;;53.53;36.22;;;;;;;7.87;100.00;92786.69;5090264;28;20264;-73
2023/04/21 06:07:29;;;;;;;35.47;23.98;;;;;;;7.99;100.00;92783.50;5091001;28;20403;-72
2023/04/21 06:09:56;;;;;;;43.70;27.27;;;;;;;8.08;100.00;92787.41;5090405;28;20055;-72
2023/04/21 06:12:23;;;;;;;42.63;29.10;;;;;;;8.16;100.00;92776.91;5090486;28;20230;-72
2023/04/21 06:14:51;;;;;;;39.95;26.70;;;;;;;8.28;100.00;92786.50;5090599;28;20056;-73
2023/04/21 06:17:18;;;;;;;32.50;24.10;;;;;;;8.40;100.00;92784.09;5090669;28;20060;-73
2023/04/21 06:19:45;;;;;;;33.83;20.52;;;;;;;8.55;100.00;92786.38;5090093;28;20083;-73
2023/04/21 06:22:11;;;;;;;25.35;16.27;;;;;;;8.72;100.00;92786.66;5090601;28;20051;-73
2023/04/21 06:24:38;;;;;;;20.05;15.15;;;;;;;8.83;100.00;92787.75;5090359;28;20048;-73
2023/04/21 06:27:10;;;;;;;22.90;15.35;;;;;;;8.85;100.00;92772.97;5089875;28;21634;-73
2023/04/21 06:29:37;;;;;;;20.17;15.02;;;;;;;9.12;100.00;92777.84;5089817;28;20056;-73
2023/04/21 06:32:05;;;;;;;21.10;15.25;;;;;;;9.23;100.00;92774.59;5090332;28;20110;-73
2023/04/21 06:34:32;;;;;;;20.92;15.50;;;;;;;9.42;100.00;92774.63;5090373;28;20528;-73
2023/04/21 06:36:59;;;;;;;19.83;14.50;;;;;;;9.56;100.00;92780.41;5090195;28;20089;-73
2023/04/21 06:39:26;;;;;;;18.85;14.00;;;;;;;9.65;100.00;92773.22;5089487;28;20094;-73
2023/04/21 06:41:53;;;;;;;26.35;18.98;;;;;;;9.85;100.00;92772.97;5089086;28;20381;-73
2023/04/21 06:44:19;;;;;;;38.33;25.95;;;;;;;10.01;100.00;92766.47;5089263;28;20508;-73
2023/04/21 06:46:47;;;;;;;47.33;31.13;;;;;;;10.23;100.00;92776.25;5089952;28;20097;-73
2023/04/21 06:49:15;;;;;;;41.75;26.55;;;;;;;10.21;100.00;92737.19;5089493;28;20559;-73
2023/04/21 06:51:41;;;;;;;29.80;20.48;;;;;;;10.58;100.00;92774.03;5089780;28;20044;-73
2023/04/21 06:54:08;;;;;;;37.92;25.25;;;;;;;10.73;100.00;92778.78;5089386;28;20052;-73
2023/04/21 06:56:35;;;;;;;36.28;23.27;;;;;;;10.82;100.00;92787.72;5089601;28;20450;-73
2023/04/21 06:59:02;;;;;;;32.00;21.40;;;;;;;10.99;100.00;92779.34;5089215;28;20094;-73
2023/04/21 07:01:29;;;;;;;36.20;23.25;;;;;;;11.13;100.00;92775.56;5089502;28;20117;-73
2023/04/21 07:03:55;;;;;;;36.22;20.17;;;;;;;11.27;100.00;92777.91;5089638;28;20048;-73
2023/04/21 07:06:23;;;;;;;21.92;14.73;;;;;;;11.46;100.00;92786.28;5089058;28;20582;-73
2023/04/21 07:08:50;;;;;;;15.52;10.57;;;;;;;11.49;100.00;92767.84;5089036;28;20487;-73
2023/04/21 07:11:17;;;;;;;13.20;9.52;;;;;;;11.70;100.00;92794.75;5089738;28;20052;-73
2023/04/21 07:13:43;;;;;;;14.63;9.20;;;;;;;11.70;100.00;92796.53;5089166;28;20454;-73
2023/04/21 07:16:10;;;;;;;14.85;10.15;;;;;;;11.70;100.00;92799.09;5089157;28;20093;-74
2023/04/21 07:18:39;;;;;;;15.60;9.77;;;;;;;11.82;100.00;92801.66;5089490;28;20488;-74
2023/04/21 07:21:06;;;;;;;14.32;9.73;;;;;;;11.90;100.00;92798.75;5088721;28;20127;-73
2023/04/21 07:23:34;;;;;;;13.70;9.32;;;;;;;11.89;97.07;92800.53;5088427;28;20093;-74
2023/04/21 07:26:01;;;;;;;12.85;8.65;;;;;;;11.92;95.06;92814.75;5089157;28;20052;-74
2023/04/21 07:28:27;;;;;;;13.18;9.90;;;;;;;11.97;98.44;92801.97;5088693;28;20039;-74
2023/04/21 07:30:55;;;;;;;18.23;9.40;;;;;;;12.06;98.85;92805.00;5088136;28;20497;-74
2023/04/21 07:33:22;;;;;;;16.30;9.27;;;;;;;11.97;100.00;92772.88;5087132;28;20352;-74
2023/04/21 07:35:48;;;;;;;14.98;9.52;;;;;;;12.25;100.00;92805.59;5089119;28;20112;-74
2023/04/21 07:38:15;;;;;;;14.00;10.10;;;;;;;12.43;100.00;92801.28;5087687;28;20044;-74
2023/04/21 07:40:44;;;;;;;17.15;8.80;;;;;;;12.53;98.91;92804.03;5088973;28;20095;-74
2023/04/21 07:43:11;;;;;;;15.98;9.18;;;;;;;12.63;95.22;92811.16;5088735;28;20113;-73
2023/04/21 07:45:37;;;;;;;14.18;9.43;;;;;;;12.82;99.28;92811.72;5089225;28;20044;-73
2023/04/21 07:48:05;;;;;;;14.18;8.98;;;;;;;12.88;98.07;92796.34;5088057;28;20044;-73
2023/04/21 07:50:32;;;;;;;14.63;9.50;;;;;;;13.03;98.27;92799.16;5072498;28;20040;-73
2023/04/21 07:52:58;;;;;;;15.52;8.50;;;;;;;13.18;96.46;92808.13;5087082;28;20040;-73
2023/04/21 07:55:25;;;;;;;15.05;8.90;;;;;;;13.22;90.34;92812.59;5074511;28;20573;-73
2023/04/21 07:57:53;;;;;;;14.20;9.27;;;;;;;13.40;97.46;92786.78;5088568;28;20097;-73
2023/04/21 08:00:20;;;;;;;16.15;9.70;;;;;;;13.72;97.81;92799.88;5088383;28;20052;-73
2023/04/21 08:02:47;;;;;;;16.10;9.50;;;;;;;13.95;94.61;92805.84;5088092;28;20051;-73
2023/04/21 08:05:13;;;;;;;13.13;8.60;;;;;;;14.22;90.68;92809.50;5088092;28;20492;-73
2023/04/21 08:07:40;;;;;;;15.93;8.75;;;;;;;13.55;86.23;92804.28;5088241;28;20043;-73
2023/04/21 08:10:08;;;;;;;13.73;9.02;;;;;;;13.64;87.19;92805.44;5088163;28;20496;-73
2023/04/21 08:12:35;;;;;;;12.57;8.43;;;;;;;14.16;92.40;92809.44;5088590;28;20048;-73
2023/04/21 08:15:06;;;;;;;13.38;8.50;;;;;;;14.45;91.08;92794.72;5088075;28;20048;-73
2023/04/21 08:17:33;;;;;;;12.23;8.45;;;;;;;14.10;87.32;92801.84;5088023;28;20074;-73
2023/04/21 08:20:00;;;;;;;14.27;9.18;;;;;;;14.47;85.98;92800.44;5087740;28;20093;-73
2023/04/21 08:22:26;;;;;;;14.32;7.78;;;;;;;14.83;84.20;92798.22;5087385;28;20101;-73
2023/04/21 08:24:53;;;;;;;13.65;8.48;;;;;;;15.22;82.27;92794.63;5087829;28;20036;-73
2023/04/21 08:27:20;;;;;;;14.25;8.50;;;;;;;15.77;87.12;92778.88;5088075;28;20048;-73
2023/04/21 08:29:47;;;;;;;12.73;7.22;;;;;;;16.17;83.03;92787.84;5087567;28;20036;-73
2023/04/21 08:32:21;;;;;;;18.25;7.68;;;;;;;16.50;79.83;92779.91;5087868;28;20549;-73
2023/04/21 08:34:47;;;;;;;17.05;7.85;;;;;;;16.69;79.02;92777.63;5087578;28;20051;-73
2023/04/21 08:37:14;;;;;;;13.65;7.78;;;;;;;16.90;78.82;92775.00;5087358;28;20048;-73
2023/04/21 08:39:41;;;;;;;12.10;7.78;;;;;;;16.99;76.42;92767.47;5088000;28;20044;-73
2023/04/21 08:42:08;;;;;;;17.05;7.38;;;;;;;16.93;72.93;92765.94;5087603;28;20113;-74
2023/04/21 08:44:35;;;;;;;13.88;7.60;;;;;;;16.90;72.76;92743.88;5087111;28;20040;-74
2023/04/21 08:47:03;;;;;;;19.92;8.43;;;;;;;17.23;73.53;92767.00;5088079;28;20090;-74
2023/04/21 08:49:32;;;;;;;11.98;7.57;;;;;;;16.80;72.08;92762.81;5086877;28;20073;-74
2023/04/21 08:52:00;;;;;;;10.73;7.05;;;;;;;16.30;71.47;92760.69;5087476;28;20048;-74
2023/04/21 08:54:27;;;;;;;11.32;6.00;;;;;;;16.21;70.70;92758.84;5081262;28;20044;-74
2023/04/21 08:56:54;;;;;;;11.55;6.13;;;;;;;16.45;73.36;92764.34;5080704;28;20093;-73
2023/04/21 08:59:20;;;;;;;8.93;5.03;;;;;;;16.21;72.58;92759.66;5088022;28;20518;-74
2023/04/21 09:02:06;;;;;;;11.77;6.20;;;;;;;16.41;73.04;92758.91;5087470;28;20192;-74
2023/04/21 09:04:35;;;;;;;9.35;5.45;;;;;;;16.52;70.56;92753.75;5065906;28;20500;-74
2023/04/21 09:07:02;;;;;;;9.95;5.95;;;;;;;16.83;77.48;92743.38;5086699;28;20345;-74
2023/04/21 09:09:28;;;;;;;10.90;5.95;;;;;;;17.01;72.95;92749.84;5087747;28;20048;-74
2023/04/21 09:11:57;;;;;;;6.82;4.85;;;;;;;17.01;68.03;92752.44;5086907;28;20044;-74
2023/04/21 09:14:31;;;;;;;9.65;5.53;;;;;;;16.11;69.27;92734.47;5071562;28;20832;-74
2023/04/21 09:17:01;;;;;;;8.48;5.15;;;;;;;15.46;71.06;92739.91;5078370;28;20044;-74
2023/04/21 09:19:28;;;;;;;8.65;5.10;;;;;;;15.42;73.33;92738.84;5086651;28;20090;-74
2023/04/21 09:21:57;;;;;;;11.18;7.03;;;;;;;14.76;74.90;92740.78;5087206;28;20044;-74
2023/04/21 09:24:24;;;;;;;11.05;7.10;;;;;;;14.75;77.95;92734.81;5086840;28;20639;-74
2023/04/21 09:26:52;;;;;;;8.10;5.78;;;;;;;14.07;80.08;92735.97;5086929;28;20036;-73
2023/04/21 09:29:19;;;;;;;9.35;6.10;;;;;;;13.66;83.48;92738.13;5086685;28;20047;-73
2023/04/21 09:31:45;;;;;;;11.02;6.90;;;;;;;13.41;90.35;92737.53;5086802;28;20132;-74
2023/04/21 09:34:19;;;;;;;7.88;5.60;;;;;;;13.38;90.07;92732.06;5086742;28;20065;-73
2023/04/21 09:36:46;;;;;;;9.05;5.72;;;;;;;13.54;85.96;92733.06;5054676;28;20449;-73
2023/04/21 09:39:14;;;;;;;9.77;6.10;;;;;;;13.80;86.39;92715.31;5081603;28;20040;-73
2023/04/21 09:41:41;;;;;;;10.20;5.60;;;;;;;14.37;83.83;92728.78;5087249;28;20452;-73
2023/04/21 09:44:08;;;;;;;9.30;5.95;;;;;;;14.61;79.67;92726.66;5087049;28;20109;-73
2023/04/21 09:46:36;;;;;;;15.32;8.77;;;;;;;14.52;79.87;92723.75;5087203;28;20056;-74
2023/04/21 09:49:03;;;;;;;12.32;6.53;;;;;;;14.82;80.79;92727.63;5086568;28;20557;-73
2023/04/21 09:51:32;;;;;;;9.88;5.20;;;;;;;14.64;77.79;92718.41;5086892;28;20500;-74
2023/04/21 09:54:00;;;;;;;8.23;4.55;;;;;;;15.01;75.98;92719.47;5087028;28;20052;-74
2023/04/21 09:56:30;;;;;;;6.82;4.47;;;;;;;15.00;75.75;92689.44;5086746;28;20044;-74
2023/04/21 09:59:01;;;;;;;8.93;4.65;;;;;;;15.66;78.17;92713.34;5086619;28;20043;-74
2023/04/21 10:01:30;;;;;;;6.47;4.00;;;;;;;15.93;72.90;92715.00;5086746;28;20055;-74
2023/04/21 10:03:58;;;;;;;7.50;4.75;;;;;;;16.11;75.39;92710.41;5086534;28;20136;-73
2023/04/21 10:06:25;;;;;;;8.90;4.15;;;;;;;16.21;71.32;92712.22;5075369;28;20056;-73
2023/04/21 10:08:55;;;;;;;5.95;3.72;;;;;;;16.09;68.88;92710.63;5084867;28;20442;-74
2023/04/21 10:11:22;;;;;;;6.65;4.25;;;;;;;16.05;72.15;92701.81;5086820;28;20048;-74
2023/04/21 10:13:51;;;;;;;8.82;4.60;;;;;;;16.35;73.08;92696.94;5086902;28;20062;-73
2023/04/21 10:16:20;;;;;;;10.07;5.05;;;;;;;16.64;71.23;92705.00;5087973;28;20093;-74
2023/04/21 10:18:46;;;;;;;14.23;4.88;;;;;;;16.78;70.59;92707.06;5090499;28;20456;-74
2023/04/21 10:21:20;;;;;;;12.80;5.10;;;;;;;16.37;69.86;92698.25;5090475;28;20040;-74
2023/04/21 10:23:48;;;;;;;6.40;3.75;;;;;;;15.92;70.25;92700.47;5090368;28;20048;-74
2023/04/21 10:26:19;;;;;;;7.20;3.85;;;;;;;15.36;72.32;92700.00;5090184;28;20470;-74
2023/04/21 10:28:56;;;;;;;7.20;3.75;;;;;;;15.36;72.23;92699.22;5090078;28;20489;-74
2023/04/21 10:31:29;;;;;;;12.90;4.80;;;;;;;15.25;71.40;92692.44;5090615;28;20040;-73
2023/04/21 10:34:16;;;;;;;7.30;4.82;;;;;;;15.39;70.50;92690.97;5089795;28;20044;-73
2023/04/21 10:36:48;;;;;;;9.00;4.55;;;;;;;15.66;73.23;92690.03;5064026;28;20484;-73
2023/04/21 10:39:26;;;;;;;7.72;3.50;;;;;;;16.11;68.66;92685.25;5089802;28;20044;-74
2023/04/21 10:41:56;;;;;;;7.35;4.50;;;;;;;16.58;71.21;92680.13;5090493;28;20048;-73
2023/04/21 10:44:25;;;;;;;7.00;4.25;;;;;;;16.99;66.88;92681.09;5089883;28;20151;-74
2023/04/21 10:46:53;;;;;;;7.25;4.10;;;;;;;17.22;67.16;92682.41;5090590;28;20420;-73
2023/04/21 10:49:24;;;;;;;7.43;4.78;;;;;;;17.17;62.62;92680.56;5089426;28;20095;-74
2023/04/21 10:52:11;;;;;;;5.70;4.05;;;;;;;17.30;64.30;92691.44;5090340;28;20050;-73
2023/04/21 10:54:42;;;;;;;5.45;3.90;;;;;;;17.17;65.07;92692.78;5064581;28;20044;-74
2023/04/21 10:57:10;;;;;;;11.55;6.63;;;;;;;15.43;70.26;92693.81;5089874;28;20102;-74
2023/04/21 10:59:39;;;;;;;6.75;4.85;;;;;;;14.77;75.36;92685.44;5089796;28;20044;-74
2023/04/21 11:02:07;;;;;;;7.00;4.20;;;;;;;15.06;70.77;92685.91;5089397;28;20407;-74
2023/04/21 11:04:34;;;;;;;8.27;4.38;;;;;;;14.81;68.86;92668.38;5089477;28;20054;-74
2023/04/21 11:07:07;;;;;;;6.70;4.95;;;;;;;14.88;74.12;92652.66;5089267;28;20107;-73
2023/04/21 11:09:34;;;;;;;7.25;4.60;;;;;;;14.96;67.19;92678.81;5089822;28;20048;-74
2023/04/21 11:12:03;;;;;;;6.63;3.53;;;;;;;15.04;71.69;92669.06;5088930;28;20518;-74
2023/04/21 11:14:30;;;;;;;6.85;4.03;;;;;;;15.59;68.90;92674.72;5089833;28;20040;-74
2023/04/21 11:16:59;;;;;;;7.28;4.10;;;;;;;16.12;74.08;92671.25;5089157;28;20386;-73
2023/04/21 11:19:26;;;;;;;6.78;3.40;;;;;;;16.38;63.95;92668.69;5088936;28;20059;-74
2023/04/21 11:21:54;;;;;;;5.30;3.45;;;;;;;16.64;64.23;92662.72;5089369;28;20044;-74
2023/04/21 11:24:21;;;;;;;5.45;3.30;;;;;;;16.86;64.64;92670.25;5089273;28;20048;-74